Time;durP1;ratioP1;P1;durP2;ratioP2;P2;SDS_P1;SDS_P2;PMS_P1;PMS_P2;Temp;Humidity;BMP_temperature;BMP_pressure;BME280_temperature;BME280_humidity;BME280_pressure;Samples;Min_cycle;Max_cycle;Signal;HPM_P1;HPM_P2
2021/10/09 00:01:51;;;;;;;9.40;8.23;;;15.50;72.20;;;;;;4886404;29;20032;-85
2021/10/09 00:04:17;;;;;;;9.77;8.02;;;15.50;72.20;;;;;;4870384;29;20028;-85
2021/10/09 00:06:43;;;;;;;9.50;8.00;;;15.50;72.20;;;;;;4870701;29;20088;-87
2021/10/09 00:09:10;;;;;;;9.23;8.05;;;15.50;72.20;;;;;;4885402;29;20064;-86
2021/10/09 00:11:39;;;;;;;9.52;8.20;;;15.50;72.30;;;;;;4870276;29;20032;-86
2021/10/09 00:14:06;;;;;;;9.63;7.57;;;15.50;72.30;;;;;;4885412;29;20513;-86
2021/10/09 00:16:33;;;;;;;9.95;8.40;;;15.50;72.20;;;;;;4901786;29;20024;-85
2021/10/09 00:18:59;;;;;;;9.45;8.20;;;15.50;72.30;;;;;;4869917;29;20057;-86
2021/10/09 00:21:25;;;;;;;9.80;8.05;;;15.40;72.20;;;;;;4900602;29;20068;-86
2021/10/09 00:23:51;;;;;;;10.93;8.38;;;15.40;72.30;;;;;;4885747;29;20044;-86
2021/10/09 00:26:17;;;;;;;10.05;8.38;;;15.40;72.30;;;;;;4885533;29;20035;-86
2021/10/09 00:28:43;;;;;;;9.32;7.80;;;15.40;72.30;;;;;;4885626;29;20033;-86
2021/10/09 00:31:09;;;;;;;9.73;8.20;;;15.40;72.30;;;;;;4885196;29;20029;-86
2021/10/09 00:33:35;;;;;;;9.45;7.93;;;15.40;72.30;;;;;;4870366;29;20033;-84
2021/10/09 00:36:01;;;;;;;9.43;7.97;;;15.40;72.30;;;;;;4870132;29;20041;-85
2021/10/09 00:38:27;;;;;;;10.07;8.18;;;15.30;72.30;;;;;;4870531;29;20381;-86
2021/10/09 00:40:53;;;;;;;10.88;8.10;;;15.30;72.30;;;;;;4869789;29;20028;-84
2021/10/09 00:43:18;;;;;;;9.65;8.23;;;15.30;72.40;;;;;;4885605;29;20413;-86
2021/10/09 00:45:52;;;;;;;9.43;7.78;;;15.30;72.40;;;;;;4870140;29;20040;-85
2021/10/09 00:48:19;;;;;;;10.20;8.37;;;15.30;72.40;;;;;;4886065;29;20124;-86
2021/10/09 00:50:47;;;;;;;9.85;8.18;;;15.30;72.40;;;;;;4870095;29;20096;-86
2021/10/09 00:53:14;;;;;;;8.95;7.25;;;15.30;72.40;;;;;;4869420;29;20043;-85
2021/10/09 00:55:40;;;;;;;10.30;8.70;;;15.30;72.40;;;;;;4868933;29;20099;-86
2021/10/09 00:58:07;;;;;;;10.15;8.60;;;15.20;72.40;;;;;;4869837;29;20025;-85
2021/10/09 01:00:34;;;;;;;9.65;8.48;;;15.20;72.40;;;;;;4884852;29;20481;-86
2021/10/09 01:03:03;;;;;;;9.88;8.30;;;15.20;72.40;;;;;;4901660;29;20040;-85
2021/10/09 01:05:31;;;;;;;9.38;8.35;;;15.20;72.40;;;;;;4885659;29;20029;-85
2021/10/09 01:07:58;;;;;;;10.35;8.68;;;15.20;72.50;;;;;;4884639;29;20080;-86
2021/10/09 01:10:26;;;;;;;9.77;7.90;;;15.20;72.40;;;;;;4884062;29;20056;-86
2021/10/09 01:12:52;;;;;;;10.27;8.48;;;15.20;72.40;;;;;;4885074;29;20040;-86
2021/10/09 01:15:20;;;;;;;10.07;8.23;;;15.20;72.40;;;;;;4900240;29;20032;-85
2021/10/09 01:17:46;;;;;;;10.00;8.32;;;15.10;72.40;;;;;;4869160;29;20043;-85
2021/10/09 01:20:14;;;;;;;10.40;8.52;;;15.10;72.40;;;;;;4869119;29;20476;-85
2021/10/09 01:22:41;;;;;;;9.60;8.02;;;15.10;72.40;;;;;;4869302;29;20096;-85
2021/10/09 01:25:08;;;;;;;10.02;8.77;;;15.10;72.40;;;;;;4884625;29;20033;-85
2021/10/09 01:27:38;;;;;;;10.43;8.65;;;15.10;72.40;;;;;;4884771;29;20075;-85
2021/10/09 01:30:05;;;;;;;10.23;7.93;;;15.10;72.50;;;;;;4869233;29;20036;-86
2021/10/09 01:32:31;;;;;;;9.40;8.18;;;15.10;72.50;;;;;;4884043;29;20469;-87
2021/10/09 01:34:57;;;;;;;9.43;8.30;;;15.10;72.50;;;;;;4869583;29;20036;-86
2021/10/09 01:37:23;;;;;;;11.57;8.80;;;15.10;72.50;;;;;;4884585;29;20120;-85
2021/10/09 01:39:49;;;;;;;10.82;9.10;;;15.00;72.40;;;;;;4884009;29;20552;-86
2021/10/09 01:42:22;;;;;;;9.95;8.82;;;15.10;72.50;;;;;;4870065;29;20462;-86
2021/10/09 01:44:49;;;;;;;10.52;9.10;;;15.00;72.40;;;;;;4869454;29;20040;-86
2021/10/09 01:47:15;;;;;;;11.05;9.32;;;15.00;72.50;;;;;;4868892;29;20474;-86
2021/10/09 01:49:42;;;;;;;10.55;8.77;;;15.00;72.50;;;;;;4868884;29;20494;-86
2021/10/09 01:52:10;;;;;;;11.27;8.93;;;15.00;72.50;;;;;;4868559;29;20060;-86
2021/10/09 01:54:36;;;;;;;10.75;8.95;;;15.00;72.50;;;;;;4868343;29;20497;-86
2021/10/09 01:57:02;;;;;;;10.50;8.68;;;15.00;72.50;;;;;;4884193;29;20071;-87
2021/10/09 01:59:28;;;;;;;10.05;8.82;;;15.00;72.50;;;;;;4868934;29;20020;-85
2021/10/09 02:02:06;;;;;;;11.00;9.38;;;15.00;72.50;;;;;;4869532;29;20036;-84
2021/10/09 02:04:34;;;;;;;11.02;9.13;;;15.00;72.60;;;;;;4869513;29;20071;-85
2021/10/09 02:07:01;;;;;;;11.68;9.30;;;15.00;72.50;;;;;;4883675;29;20028;-85
2021/10/09 02:09:29;;;;;;;11.23;9.27;;;15.00;72.50;;;;;;4883752;29;20055;-85
2021/10/09 02:11:59;;;;;;;11.13;9.77;;;15.00;72.60;;;;;;4868945;29;20036;-84
2021/10/09 02:14:52;;;;;;;10.48;8.73;;;14.90;72.50;;;;;;4883893;29;20048;-86
2021/10/09 02:28:08;;;;;;;10.85;9.13;;;14.80;72.50;;;;;;4871886;29;20073;-85
2021/10/09 02:30:35;;;;;;;11.02;8.98;;;14.80;72.60;;;;;;4899535;29;20036;-85
2021/10/09 02:33:01;;;;;;;11.27;9.88;;;14.80;72.60;;;;;;4852149;29;20095;-84
2021/10/09 02:35:29;;;;;;;12.10;9.65;;;14.80;72.60;;;;;;4882863;29;20474;-84
2021/10/09 02:37:55;;;;;;;10.77;8.85;;;14.80;72.70;;;;;;4898881;29;20028;-85
2021/10/09 02:40:21;;;;;;;11.10;9.07;;;14.80;72.60;;;;;;4883669;29;20079;-85
2021/10/09 02:42:47;;;;;;;11.02;9.27;;;14.80;72.60;;;;;;4884026;29;20044;-85
2021/10/09 02:45:13;;;;;;;12.20;9.02;;;14.80;72.60;;;;;;4868486;29;20518;-86
2021/10/09 02:47:39;;;;;;;11.27;9.65;;;14.80;72.70;;;;;;4867740;29;20439;-85
2021/10/09 02:50:10;;;;;;;11.38;9.20;;;14.80;72.70;;;;;;4868076;29;20120;-85
2021/10/09 02:52:39;;;;;;;11.48;9.30;;;14.80;72.70;;;;;;4883646;29;20036;-86
2021/10/09 02:55:06;;;;;;;11.82;9.82;;;14.80;72.60;;;;;;4884173;29;20159;-83
2021/10/09 02:57:32;;;;;;;10.88;8.90;;;14.70;72.60;;;;;;4867182;29;20060;-85
2021/10/09 02:59:57;;;;;;;10.98;9.18;;;14.70;72.60;;;;;;4883095;29;20033;-85
2021/10/09 03:02:23;;;;;;;10.88;9.43;;;14.70;72.60;;;;;;4868226;29;20101;-85
2021/10/09 03:04:50;;;;;;;10.32;8.95;;;14.70;73.20;;;;;;4868147;29;20609;-84
2021/10/09 03:07:16;;;;;;;12.80;10.18;;;14.70;72.60;;;;;;4868299;29;20032;-86
2021/10/09 03:09:42;;;;;;;11.75;9.73;;;14.70;72.60;;;;;;4883303;29;20068;-85
2021/10/09 03:12:08;;;;;;;12.02;10.05;;;14.70;72.60;;;;;;4868579;29;20032;-86
2021/10/09 03:14:35;;;;;;;11.48;9.68;;;14.70;72.60;;;;;;4868022;29;20032;-85
2021/10/09 03:17:01;;;;;;;11.18;9.15;;;14.70;72.60;;;;;;4883039;29;20036;-84
2021/10/09 03:19:26;;;;;;;11.98;9.70;;;14.70;72.60;;;;;;4884715;29;20477;-85
2021/10/09 03:21:52;;;;;;;11.43;9.40;;;14.70;72.60;;;;;;4871723;29;20048;-85
2021/10/09 03:24:18;;;;;;;11.07;9.43;;;14.60;72.60;;;;;;4871447;29;20579;-85
2021/10/09 03:26:44;;;;;;;10.95;9.52;;;14.60;72.60;;;;;;4886169;29;20059;-85
2021/10/09 03:29:10;;;;;;;11.40;9.57;;;14.60;72.60;;;;;;4856013;29;20039;-83
2021/10/09 03:31:37;;;;;;;11.35;9.57;;;14.60;72.60;;;;;;4886312;29;20032;-85
2021/10/09 03:34:03;;;;;;;11.38;9.43;;;14.60;72.60;;;;;;4902022;29;20032;-85
2021/10/09 03:36:29;;;;;;;10.55;9.05;;;14.60;72.60;;;;;;4886375;29;20025;-85
2021/10/09 03:38:55;;;;;;;11.43;9.70;;;14.60;72.60;;;;;;4886386;29;20032;-85
2021/10/09 03:41:21;;;;;;;11.23;9.13;;;14.60;72.60;;;;;;4870655;29;20131;-85
2021/10/09 03:43:47;;;;;;;11.45;9.63;;;14.60;72.60;;;;;;4870360;29;20123;-84
2021/10/09 03:46:26;;;;;;;11.60;9.63;;;14.50;72.60;;;;;;4887076;29;20031;-85
2021/10/09 03:49:56;;;;;;;11.23;9.50;;;14.50;72.60;;;;;;4888817;29;20040;-85
2021/10/09 03:54:34;;;;;;;10.30;8.70;;;14.50;72.60;;;;;;4873640;29;20474;-84
2021/10/09 03:57:00;;;;;;;12.48;9.77;;;14.50;72.60;;;;;;4886154;29;20041;-85
2021/10/09 03:59:26;;;;;;;11.55;10.13;;;14.50;72.60;;;;;;4870364;29;20033;-85
2021/10/09 04:01:53;;;;;;;11.18;9.40;;;14.50;72.70;;;;;;4901090;29;20068;-84
2021/10/09 04:04:22;;;;;;;11.75;9.32;;;14.50;72.70;;;;;;4870436;29;20055;-85
2021/10/09 04:06:48;;;;;;;12.07;9.82;;;14.40;72.60;;;;;;4870218;29;20020;-85
2021/10/09 04:09:14;;;;;;;12.48;9.77;;;14.40;72.60;;;;;;4870235;29;20036;-85
2021/10/09 04:11:40;;;;;;;10.85;9.20;;;14.40;72.60;;;;;;4886825;29;20043;-85
2021/10/09 04:14:06;;;;;;;11.27;9.35;;;14.40;72.70;;;;;;4885931;29;20135;-86
2021/10/09 04:16:33;;;;;;;12.75;10.35;;;14.40;72.70;;;;;;4885866;29;20060;-84
2021/10/09 04:18:59;;;;;;;11.80;9.73;;;14.40;72.70;;;;;;4885603;29;20036;-85
2021/10/09 04:21:25;;;;;;;11.65;9.48;;;14.40;72.70;;;;;;4870411;29;20036;-84
2021/10/09 04:23:52;;;;;;;11.85;9.95;;;14.30;72.60;;;;;;4870257;29;20084;-85
2021/10/09 04:26:20;;;;;;;11.38;9.98;;;14.30;72.60;;;;;;4886202;29;20033;-84
2021/10/09 04:28:47;;;;;;;11.07;8.90;;;14.40;72.70;;;;;;4870555;29;20084;-85
2021/10/09 04:31:13;;;;;;;10.77;9.23;;;14.30;72.60;;;;;;4884390;29;20041;-85
2021/10/09 04:33:39;;;;;;;11.40;9.63;;;14.30;72.60;;;;;;4885267;29;20032;-85
2021/10/09 04:36:08;;;;;;;11.90;9.60;;;14.30;72.60;;;;;;4869906;29;20076;-85
2021/10/09 04:38:35;;;;;;;11.52;9.40;;;14.30;72.60;;;;;;4870510;29;20055;-85
2021/10/09 04:41:02;;;;;;;12.15;9.73;;;14.30;72.60;;;;;;4885151;29;20127;-86
2021/10/09 04:43:29;;;;;;;10.55;8.60;;;14.20;72.60;;;;;;4870352;29;20136;-84
2021/10/09 04:45:55;;;;;;;11.80;9.57;;;14.20;72.60;;;;;;4870346;29;20447;-85
2021/10/09 04:48:23;;;;;;;12.50;10.10;;;14.20;72.60;;;;;;4885328;29;20139;-84
2021/10/09 04:50:49;;;;;;;12.15;10.15;;;14.20;72.60;;;;;;4901049;29;20039;-85
2021/10/09 04:53:15;;;;;;;12.13;10.05;;;14.10;72.50;;;;;;4884746;29;20095;-85
2021/10/09 04:55:41;;;;;;;11.93;9.85;;;14.10;72.50;;;;;;4884903;29;20127;-85
2021/10/09 04:58:07;;;;;;;11.52;9.55;;;14.10;72.50;;;;;;4870281;29;20032;-83
2021/10/09 05:00:33;;;;;;;11.38;9.32;;;14.10;72.60;;;;;;4868980;29;20028;-84
2021/10/09 05:03:00;;;;;;;12.82;10.05;;;14.10;72.60;;;;;;4884878;29;20051;-85
2021/10/09 05:05:29;;;;;;;12.77;10.27;;;14.10;72.50;;;;;;4884986;29;20033;-85
2021/10/09 05:07:56;;;;;;;12.50;10.25;;;14.00;72.50;;;;;;4884449;29;20052;-85
2021/10/09 05:10:25;;;;;;;11.68;9.68;;;14.10;72.60;;;;;;4884375;29;20100;-85
2021/10/09 05:12:54;;;;;;;11.57;9.52;;;14.00;72.60;;;;;;4884634;29;20045;-85
2021/10/09 05:15:20;;;;;;;12.15;10.20;;;14.00;72.50;;;;;;4884506;29;20123;-84
2021/10/09 05:17:46;;;;;;;13.07;9.90;;;14.00;72.50;;;;;;4869080;29;20046;-84
2021/10/09 05:20:13;;;;;;;12.73;9.63;;;13.90;72.50;;;;;;4868909;29;20032;-84
2021/10/09 05:22:39;;;;;;;11.93;9.90;;;14.00;72.60;;;;;;4868658;29;20041;-84
2021/10/09 05:25:05;;;;;;;11.02;9.15;;;13.90;72.50;;;;;;4885013;29;20080;-84
2021/10/09 05:27:35;;;;;;;11.35;9.65;;;13.90;72.50;;;;;;4868697;29;20064;-85
2021/10/09 05:30:07;;;;;;;13.10;10.13;;;13.90;72.50;;;;;;4900332;29;20033;-86
2021/10/09 05:32:47;;;;;;;11.95;10.10;;;13.90;72.60;;;;;;4869897;29;20474;-83
2021/10/09 05:35:14;;;;;;;12.00;9.70;;;13.90;72.60;;;;;;4883655;29;20029;-85
2021/10/09 05:37:40;;;;;;;13.13;10.15;;;13.90;72.60;;;;;;4884548;29;20036;-85
2021/10/09 05:40:07;;;;;;;13.63;10.40;;;13.80;72.60;;;;;;4916163;29;20036;-85
2021/10/09 05:42:34;;;;;;;12.50;10.52;;;13.80;72.60;;;;;;4884349;29;20053;-86
2021/10/09 05:45:02;;;;;;;12.57;10.15;;;13.80;72.60;;;;;;4899123;29;20100;-85
2021/10/09 05:47:31;;;;;;;12.13;10.00;;;13.80;72.60;;;;;;4883832;29;20084;-85
2021/10/09 05:49:59;;;;;;;11.52;9.77;;;13.80;72.60;;;;;;4915786;29;20061;-85
2021/10/09 05:52:34;;;;;;;12.63;10.25;;;13.70;72.60;;;;;;4868660;29;20055;-86
2021/10/09 06:47:27;;;;;;;10.70;8.77;;;13.50;72.90;;;;;;4894797;29;20011;-84
2021/10/09 07:01:03;;;;;;;12.27;9.48;;;13.40;73.00;;;;;;4870577;29;20043;-85
2021/10/09 07:03:29;;;;;;;13.13;9.85;;;13.40;73.00;;;;;;4853191;29;20041;-84
2021/10/09 07:06:00;;;;;;;12.57;9.95;;;13.40;73.10;;;;;;4854381;29;20033;-83
2021/10/09 07:08:46;;;;;;;12.30;9.77;;;13.40;73.10;;;;;;4883848;29;20045;-85
2021/10/09 07:11:31;;;;;;;10.90;9.27;;;13.40;73.10;;;;;;4888859;29;20049;-85
2021/10/09 07:13:57;;;;;;;12.40;9.85;;;13.40;73.10;;;;;;4899729;29;20048;-85
2021/10/09 07:16:23;;;;;;;12.18;10.05;;;13.40;73.10;;;;;;4867700;29;20029;-85
2021/10/09 07:18:49;;;;;;;12.52;9.88;;;13.40;73.10;;;;;;4867695;29;20040;-84
2021/10/09 07:21:18;;;;;;;12.82;10.45;;;13.40;73.20;;;;;;4867639;29;20033;-84
2021/10/09 07:23:44;;;;;;;12.77;9.90;;;13.40;73.20;;;;;;4883149;29;20041;-84
2021/10/09 07:26:10;;;;;;;14.25;10.98;;;13.40;73.20;;;;;;4868169;29;20374;-83
2021/10/09 07:28:36;;;;;;;13.15;10.48;;;13.40;73.20;;;;;;4882952;29;20079;-81
2021/10/09 07:31:02;;;;;;;12.00;9.60;;;13.40;73.20;;;;;;4851396;29;20057;-82
2021/10/09 07:33:28;;;;;;;13.40;10.70;;;13.40;73.30;;;;;;4882081;29;20037;-83
2021/10/09 07:35:54;;;;;;;13.75;10.52;;;13.40;73.30;;;;;;4898888;29;20041;-81
2021/10/09 07:38:19;;;;;;;13.43;10.65;;;13.40;73.30;;;;;;4851494;29;20029;-81
2021/10/09 07:40:45;;;;;;;12.25;10.23;;;13.40;73.30;;;;;;4882095;29;20047;-82
2021/10/09 07:43:12;;;;;;;11.98;9.80;;;13.40;73.30;;;;;;4866846;29;20084;-81
2021/10/09 07:45:38;;;;;;;12.30;9.65;;;13.40;73.30;;;;;;4866699;29;20032;-82
2021/10/09 07:48:04;;;;;;;12.65;9.85;;;13.40;73.30;;;;;;4883084;29;20032;-80
2021/10/09 07:50:29;;;;;;;12.80;10.25;;;13.40;73.30;;;;;;4881726;29;20041;-80
2021/10/09 07:52:55;;;;;;;12.70;10.30;;;13.40;73.30;;;;;;4851434;29;20043;-80
2021/10/09 07:55:21;;;;;;;12.38;10.32;;;13.40;73.40;;;;;;4881555;29;20060;-78
2021/10/09 07:57:47;;;;;;;12.70;10.23;;;13.40;73.40;;;;;;4882373;29;20087;-78
2021/10/09 08:00:13;;;;;;;11.80;9.95;;;13.40;73.40;;;;;;4850577;29;20593;-79
2021/10/09 08:02:52;;;;;;;11.35;9.25;;;13.40;73.40;;;;;;4851146;29;20040;-79
2021/10/09 08:05:18;;;;;;;12.85;9.88;;;13.40;73.60;;;;;;4881162;29;20032;-79
2021/10/09 08:07:44;;;;;;;11.85;9.65;;;13.40;73.40;;;;;;4897075;29;20123;-80
2021/10/09 08:10:11;;;;;;;12.60;10.45;;;13.40;73.40;;;;;;4851394;29;20191;-79
2021/10/09 08:12:38;;;;;;;12.45;10.10;;;13.40;73.50;;;;;;4863306;29;20101;-79
2021/10/09 08:15:05;;;;;;;12.57;10.07;;;13.40;73.50;;;;;;4893960;29;20029;-82
2021/10/09 08:17:31;;;;;;;11.70;10.23;;;13.40;73.50;;;;;;4863641;29;20039;-80
2021/10/09 08:19:57;;;;;;;12.50;9.85;;;13.50;73.60;;;;;;4862839;29;20494;-80
2021/10/09 08:22:25;;;;;;;12.98;10.48;;;13.50;73.60;;;;;;4862696;29;20038;-81
2021/10/09 08:35:37;;;;;;;11.48;9.38;;;13.50;73.60;;;;;;4864120;29;20061;-78
2021/10/09 08:40:47;;;;;;;12.25;9.73;;;13.50;73.60;;;;;;4863853;29;20589;-81
2021/10/09 08:43:13;;;;;;;12.70;10.55;;;13.50;73.60;;;;;;4878565;29;20050;-80
2021/10/09 08:45:39;;;;;;;12.77;10.45;;;13.50;73.60;;;;;;4878337;29;20047;-78
2021/10/09 08:48:05;;;;;;;14.35;11.05;;;13.50;73.70;;;;;;4879137;29;20417;-79
2021/10/09 08:50:31;;;;;;;12.95;10.57;;;13.50;73.70;;;;;;4847196;29;20084;-79
2021/10/09 08:53:09;;;;;;;13.15;10.80;;;13.60;73.70;;;;;;4878647;29;20454;-80
2021/10/09 08:55:37;;;;;;;13.55;10.60;;;13.60;73.90;;;;;;4862316;29;20040;-80
2021/10/09 08:58:07;;;;;;;13.45;10.85;;;13.60;73.70;;;;;;4877930;29;20037;-79
2021/10/09 09:03:36;;;;;;;12.65;10.63;;;13.70;73.90;;;;;;4864378;29;20121;-84
2021/10/09 09:06:13;;;;;;;14.10;11.07;;;13.70;73.70;;;;;;4879286;29;20120;-84
2021/10/09 09:25:21;;;;;;;13.73;10.93;;;13.70;73.70;;;;;;4879607;29;20068;-85
2021/10/09 09:41:21;;;;;;;15.18;11.88;;;13.90;73.70;;;;;;4881800;29;20048;-85
2021/10/09 09:43:54;;;;;;;13.10;11.23;;;14.00;73.90;;;;;;4880784;29;20045;-84
2021/10/09 09:46:26;;;;;;;14.93;12.13;;;14.00;73.60;;;;;;4881501;29;20029;-85
2021/10/09 09:48:53;;;;;;;13.57;10.80;;;14.00;73.60;;;;;;4881245;29;20052;-85
2021/10/09 09:51:22;;;;;;;14.13;11.32;;;14.10;73.60;;;;;;4881900;29;20072;-85
2021/10/09 09:53:51;;;;;;;13.73;11.70;;;14.10;73.60;;;;;;4866019;29;20033;-84
2021/10/09 09:56:21;;;;;;;13.93;11.68;;;14.10;73.50;;;;;;4881239;29;20044;-86
2021/10/09 09:58:54;;;;;;;14.13;11.70;;;14.20;73.50;;;;;;4865944;29;20216;-86
2021/10/09 10:01:25;;;;;;;14.23;11.23;;;14.20;73.50;;;;;;4881357;29;20467;-86
2021/10/09 10:03:55;;;;;;;13.27;11.57;;;14.20;73.40;;;;;;4865905;29;20076;-86
2021/10/09 10:06:21;;;;;;;13.75;11.27;;;14.30;73.30;;;;;;4865132;29;20033;-84
2021/10/09 10:08:50;;;;;;;13.38;11.55;;;14.30;73.20;;;;;;4865533;29;20084;-85
2021/10/09 10:11:19;;;;;;;13.57;11.57;;;14.40;73.20;;;;;;4865289;29;20053;-86
2021/10/09 10:13:49;;;;;;;13.75;12.10;;;14.40;73.20;;;;;;4896379;29;20037;-85
2021/10/09 10:16:16;;;;;;;15.10;12.18;;;14.50;73.10;;;;;;4865371;29;20041;-86
2021/10/09 10:18:45;;;;;;;13.63;11.60;;;14.50;73.00;;;;;;4864984;29;20041;-85
2021/10/09 10:21:18;;;;;;;15.02;12.02;;;14.60;73.00;;;;;;4880578;29;20531;-86
2021/10/09 10:23:47;;;;;;;13.18;11.05;;;14.60;72.90;;;;;;4864918;29;20044;-87
2021/10/09 10:26:19;;;;;;;14.65;12.05;;;14.60;72.90;;;;;;4880738;29;20462;-85
2021/10/09 10:29:07;;;;;;;13.48;11.20;;;14.70;72.90;;;;;;4864744;29;20039;-86
2021/10/09 10:31:34;;;;;;;13.43;10.80;;;14.80;72.90;;;;;;4880888;29;20036;-85
2021/10/09 10:34:19;;;;;;;11.88;10.60;;;14.80;72.70;;;;;;4880723;29;20486;-86
2021/10/09 10:36:45;;;;;;;13.23;10.98;;;14.80;72.80;;;;;;4881685;29;20029;-86
2021/10/09 10:39:13;;;;;;;13.63;10.98;;;14.90;72.60;;;;;;4865473;29;20124;-86
2021/10/09 10:41:51;;;;;;;13.40;11.07;;;14.90;72.50;;;;;;4865810;29;20091;-85
2021/10/09 10:44:51;;;;;;;12.68;10.88;;;15.00;72.60;;;;;;4881904;29;20044;-88
2021/10/09 10:47:41;;;;;;;13.00;10.52;;;15.00;72.60;;;;;;4911915;29;20067;-83
2021/10/09 10:50:20;;;;;;;13.00;10.57;;;15.00;72.50;;;;;;4880094;29;20089;-83
2021/10/09 10:52:57;;;;;;;12.80;10.43;;;15.00;72.40;;;;;;4879867;29;20037;-79
2021/10/09 10:55:23;;;;;;;13.50;11.10;;;15.10;72.50;;;;;;4863672;29;20033;-79
2021/10/09 10:58:18;;;;;;;12.95;10.60;;;15.10;72.40;;;;;;4880246;29;20037;-77
2021/10/09 11:01:04;;;;;;;;;;;15.10;72.60;;;;;;4864204;29;20427;-78
2021/10/09 11:03:31;;;;;;;10.90;8.68;;;15.10;72.30;;;;;;4878496;29;19916;-78
2021/10/09 11:05:57;;;;;;;11.55;9.32;;;15.10;72.20;;;;;;4863643;29;20045;-78
2021/10/09 11:08:23;;;;;;;11.23;9.57;;;15.20;72.40;;;;;;4880139;29;20481;-80
2021/10/09 11:10:49;;;;;;;13.85;11.40;;;15.20;72.50;;;;;;4850711;29;20050;-82
2021/10/09 11:13:15;;;;;;;12.52;10.23;;;15.20;72.50;;;;;;4860817;29;20090;-80
2021/10/09 11:15:47;;;;;;;12.98;10.95;;;15.20;72.50;;;;;;4876728;29;20046;-83
2021/10/09 11:18:12;;;;;;;12.75;10.63;;;15.20;72.60;;;;;;4861645;29;20040;-81
2021/10/09 11:20:42;;;;;;;12.48;9.98;;;15.20;72.50;;;;;;4892122;29;20112;-80
2021/10/09 11:23:10;;;;;;;12.40;11.10;;;15.30;72.50;;;;;;4860289;29;20125;-81
2021/10/09 11:25:40;;;;;;;13.02;10.48;;;15.30;72.50;;;;;;4860623;29;20033;-80
2021/10/09 11:28:25;;;;;;;12.30;10.15;;;15.30;72.60;;;;;;4861243;29;20097;-80
2021/10/09 11:30:51;;;;;;;12.47;10.17;;;15.30;72.60;;;;;;4876652;29;20125;-81
2021/10/09 11:33:27;;;;;;;11.93;10.18;;;15.30;72.50;;;;;;4862386;29;20044;-81
2021/10/09 11:35:54;;;;;;;13.07;10.73;;;15.30;72.60;;;;;;4845741;29;20052;-81
2021/10/09 11:38:22;;;;;;;13.05;10.55;;;15.40;72.60;;;;;;4876621;29;20124;-82
2021/10/09 11:44:00;;;;;;;13.68;10.20;;;15.40;72.60;;;;;;4864479;29;20094;-80
2021/10/09 11:56:45;;;;;;;12.73;10.95;;;15.40;72.50;;;;;;4865610;29;20270;-81
2021/10/09 11:59:13;;;;;;;12.07;9.77;;;15.40;72.60;;;;;;4879949;29;20452;-81
2021/10/09 12:01:45;;;;;;;13.43;11.00;;;15.40;72.70;;;;;;4879408;29;20486;-81
2021/10/09 12:04:21;;;;;;;14.15;10.48;;;15.50;72.80;;;;;;4879338;29;20480;-81
2021/10/09 12:06:57;;;;;;;12.27;10.25;;;15.50;72.80;;;;;;4863308;29;20034;-81
2021/10/09 12:09:33;;;;;;;11.70;10.38;;;15.50;72.80;;;;;;4865376;29;20097;-80
2021/10/09 12:12:19;;;;;;;12.18;10.10;;;15.50;72.80;;;;;;4881391;29;20066;-80
2021/10/09 12:14:45;;;;;;;12.25;9.60;;;15.50;72.80;;;;;;4866018;29;20140;-80
2021/10/09 12:17:12;;;;;;;11.75;9.82;;;15.50;72.70;;;;;;4866471;29;20059;-81
2021/10/09 12:19:38;;;;;;;11.48;9.65;;;15.50;72.70;;;;;;4880907;29;20059;-80
2021/10/09 12:22:11;;;;;;;12.13;10.10;;;15.50;72.70;;;;;;4912863;29;20094;-79
2021/10/09 12:24:50;;;;;;;11.48;9.52;;;15.60;72.80;;;;;;4881754;29;20040;-78
2021/10/09 12:27:22;;;;;;;12.25;10.45;;;15.60;72.80;;;;;;4881603;29;20029;-80
2021/10/09 12:30:10;;;;;;;12.95;10.63;;;15.60;72.70;;;;;;4866573;29;20060;-84
2021/10/09 12:32:48;;;;;;;12.07;9.73;;;15.60;72.70;;;;;;4912514;29;20499;-79
2021/10/09 12:35:21;;;;;;;12.45;10.50;;;15.60;72.80;;;;;;4896874;29;20052;-79
2021/10/09 12:38:08;;;;;;;12.52;10.23;;;15.60;72.70;;;;;;4881586;29;20105;-79
2021/10/09 12:40:49;;;;;;;12.20;9.70;;;15.60;72.90;;;;;;4881585;29;20060;-79
2021/10/09 12:43:20;;;;;;;11.80;9.50;;;15.60;72.80;;;;;;4881562;29;20060;-81
2021/10/09 12:45:47;;;;;;;13.77;10.02;;;15.60;72.70;;;;;;4912149;29;20081;-80
2021/10/09 12:48:14;;;;;;;13.40;10.85;;;15.60;72.70;;;;;;4880482;29;20044;-77
2021/10/09 12:50:41;;;;;;;10.82;9.38;;;15.70;72.80;;;;;;4865195;29;20085;-77
2021/10/09 12:53:08;;;;;;;12.93;10.65;;;15.70;72.80;;;;;;4864095;29;20391;-77
2021/10/09 12:55:35;;;;;;;11.80;9.75;;;15.70;72.80;;;;;;4881146;29;20044;-76
2021/10/09 12:58:09;;;;;;;13.93;10.68;;;15.70;72.80;;;;;;4865257;29;20029;-78
2021/10/09 13:00:37;;;;;;;13.10;10.60;;;15.80;72.90;;;;;;4881532;29;20124;-79
2021/10/09 13:03:04;;;;;;;12.00;10.23;;;15.80;72.80;;;;;;4880848;29;20297;-79
2021/10/09 13:05:31;;;;;;;12.80;9.90;;;15.80;72.80;;;;;;4865140;29;20048;-78
2021/10/09 13:07:59;;;;;;;12.95;10.52;;;15.80;72.80;;;;;;4864980;29;20077;-79
2021/10/09 13:10:27;;;;;;;12.90;10.45;;;15.80;72.90;;;;;;4896217;29;20144;-80
2021/10/09 13:12:53;;;;;;;12.05;10.13;;;15.80;72.90;;;;;;4879998;29;20033;-81
2021/10/09 13:15:21;;;;;;;13.10;10.82;;;15.80;72.90;;;;;;4879488;29;20089;-81
2021/10/09 13:17:48;;;;;;;11.30;9.73;;;15.90;72.90;;;;;;4881126;29;20036;-80
2021/10/09 13:20:16;;;;;;;12.10;10.00;;;15.90;72.90;;;;;;4864220;29;20120;-80
2021/10/09 13:22:41;;;;;;;13.02;10.45;;;15.90;72.90;;;;;;4880129;29;20039;-80
2021/10/09 13:25:08;;;;;;;13.00;10.27;;;15.90;72.90;;;;;;4895209;29;20041;-81
2021/10/09 13:27:34;;;;;;;11.65;9.35;;;15.90;72.90;;;;;;4879460;29;20033;-85
2021/10/09 13:30:04;;;;;;;11.80;10.15;;;15.90;72.90;;;;;;4879533;29;20033;-81
2021/10/09 13:32:30;;;;;;;12.98;10.30;;;15.90;72.90;;;;;;4880166;29;20064;-84
2021/10/09 13:34:55;;;;;;;12.13;9.70;;;16.00;72.90;;;;;;4880309;29;20032;-79
2021/10/09 13:37:23;;;;;;;14.60;10.43;;;15.90;72.80;;;;;;4864584;29;20048;-81
2021/10/09 13:39:54;;;;;;;14.10;10.95;;;16.00;72.80;;;;;;4911189;29;20041;-81
2021/10/09 13:42:20;;;;;;;13.77;11.40;;;16.00;72.70;;;;;;4895693;29;20037;-81
2021/10/09 13:44:46;;;;;;;14.68;11.93;;;16.00;72.50;;;;;;4879152;29;20383;-82
2021/10/09 13:47:12;;;;;;;16.67;12.35;;;16.00;72.30;;;;;;4865090;29;20036;-80
2021/10/09 13:49:38;;;;;;;14.77;12.20;;;16.10;72.20;;;;;;4864367;29;20029;-80
2021/10/09 13:52:04;;;;;;;15.57;12.25;;;16.10;72.20;;;;;;4863939;29;20029;-80
2021/10/09 13:54:30;;;;;;;14.18;11.65;;;16.10;72.20;;;;;;4864334;29;20374;-81
2021/10/09 13:56:56;;;;;;;14.75;11.57;;;16.10;72.20;;;;;;4879138;29;20048;-80
2021/10/09 13:59:21;;;;;;;15.00;11.45;;;16.20;72.20;;;;;;4878953;29;20044;-80
2021/10/09 14:01:48;;;;;;;16.67;12.48;;;16.20;72.20;;;;;;4880679;29;20112;-80
2021/10/09 14:04:14;;;;;;;13.32;10.93;;;16.20;72.30;;;;;;4847853;29;20117;-81
2021/10/09 14:06:40;;;;;;;14.27;11.00;;;16.20;72.30;;;;;;4878866;29;20477;-80
2021/10/09 14:09:06;;;;;;;12.77;10.93;;;16.20;72.40;;;;;;4879502;29;20371;-83
2021/10/09 14:11:33;;;;;;;14.70;11.57;;;16.20;72.30;;;;;;4878565;29;20483;-83
2021/10/09 14:13:59;;;;;;;12.40;10.68;;;16.20;72.40;;;;;;4864506;29;20419;-82
2021/10/09 14:16:25;;;;;;;14.15;11.88;;;16.20;72.40;;;;;;4863144;29;20089;-81
2021/10/09 14:18:51;;;;;;;12.43;9.98;;;16.20;72.40;;;;;;4863874;29;20041;-82
2021/10/09 14:21:16;;;;;;;15.23;11.77;;;16.20;72.30;;;;;;4894705;29;20603;-82
2021/10/09 14:23:43;;;;;;;15.43;11.38;;;16.30;72.30;;;;;;4878683;29;20068;-86
2021/10/09 14:26:08;;;;;;;14.63;12.07;;;16.30;72.10;;;;;;4863555;29;20044;-83
2021/10/09 14:28:34;;;;;;;14.48;12.27;;;16.30;71.90;;;;;;4879224;29;20033;-82
2021/10/09 14:31:00;;;;;;;14.18;11.30;;;16.30;71.70;;;;;;4863397;29;20511;-83
2021/10/09 14:33:26;;;;;;;13.45;11.00;;;16.40;71.70;;;;;;4863907;29;20363;-82
2021/10/09 14:35:54;;;;;;;15.63;11.95;;;16.40;71.50;;;;;;4863528;29;20025;-82
2021/10/09 14:38:19;;;;;;;13.93;11.10;;;16.40;71.50;;;;;;4878492;29;20033;-84
2021/10/09 14:40:45;;;;;;;14.25;11.57;;;16.40;71.40;;;;;;4863995;29;20489;-82
2021/10/09 14:43:12;;;;;;;13.57;11.02;;;16.40;71.30;;;;;;4878227;29;20041;-88
2021/10/09 14:45:39;;;;;;;12.43;10.65;;;16.50;71.30;;;;;;4878815;29;20067;-82
2021/10/09 14:48:20;;;;;;;14.73;11.43;;;16.50;71.20;;;;;;4863440;29;20147;-84
2021/10/09 15:20:16;;;;;;;13.35;10.60;;;16.70;71.30;;;;;;4887089;29;20037;-79
2021/10/09 15:22:41;;;;;;;13.95;11.00;;;16.70;71.30;;;;;;4901369;29;20037;-81
2021/10/09 15:25:08;;;;;;;14.50;10.82;;;16.70;71.30;;;;;;4916864;29;20045;-78
2021/10/09 15:27:34;;;;;;;14.23;11.05;;;16.70;71.30;;;;;;4885586;29;20029;-79